Time;durP1;ratioP1;P1;durP2;ratioP2;P2;SDS_P1;SDS_P2;PMS_P1;PMS_P2;Temp;Humidity;BMP_temperature;BMP_pressure;BME280_temperature;BME280_humidity;BME280_pressure;Samples;Min_cycle;Max_cycle;Signal;HPM_P1;HPM_P2
2023/07/17 00:02:23;;;;;;;4.03;1.33;;;21.00;88.80;;;;;;10535921;28;20172;-35
2023/07/17 00:07:25;;;;;;;9.05;2.25;;;21.20;82.20;;;;;;10535430;28;20079;-34
2023/07/17 00:12:29;;;;;;;5.15;1.85;;;20.70;87.90;;;;;;10531478;28;20048;-35
2023/07/17 00:17:30;;;;;;;7.60;1.52;;;21.10;85.90;;;;;;10525361;28;20139;-37
2023/07/17 00:22:32;;;;;;;8.02;2.17;;;20.60;86.90;;;;;;10532104;28;20048;-35
2023/07/17 00:27:36;;;;;;;7.82;1.67;;;19.40;94.00;;;;;;10547154;28;20043;-34
2023/07/17 00:32:37;;;;;;;5.05;2.08;;;18.90;95.50;;;;;;10541050;28;20404;-34
2023/07/17 00:37:39;;;;;;;12.77;2.95;;;20.70;85.10;;;;;;10527181;28;20537;-36
2023/07/17 00:42:42;;;;;;;13.40;3.08;;;18.90;95.30;;;;;;10528325;28;20072;-35
2023/07/17 00:47:44;;;;;;;19.13;2.45;;;19.30;92.70;;;;;;10540122;28;20127;-35
2023/07/17 00:52:46;;;;;;;11.85;3.28;;;20.20;85.70;;;;;;10539434;28;20573;-35
2023/07/17 00:57:51;;;;;;;;;;;18.90;94.70;;;;;;10532358;28;20056;-35
2023/07/17 01:02:53;;;;;;;12.98;2.88;;;19.10;94.00;;;;;;10540521;28;20023;-35
2023/07/17 01:07:56;;;;;;;11.93;2.83;;;19.50;91.50;;;;;;10535560;28;20071;-34
2023/07/17 01:12:59;;;;;;;18.90;3.97;;;19.20;93.50;;;;;;10526420;28;20040;-35
2023/07/17 01:18:01;;;;;;;12.52;3.28;;;18.60;95.80;;;;;;10528070;28;20148;-29
2023/07/17 01:23:04;;;;;;;15.82;5.00;;;18.50;96.80;;;;;;10539612;28;20071;-35
2023/07/17 01:28:06;;;;;;;11.77;3.65;;;19.40;93.50;;;;;;10552257;28;20054;-34
2023/07/17 01:33:08;;;;;;;19.60;3.63;;;18.50;97.80;;;;;;10533777;28;20089;-39
2023/07/17 01:38:12;;;;;;;9.57;2.63;;;19.10;95.20;;;;;;10542377;28;20509;-36
2023/07/17 01:43:13;;;;;;;12.60;3.78;;;18.80;95.50;;;;;;10534334;28;20044;-35
2023/07/17 01:48:17;;;;;;;11.80;3.60;;;18.60;96.70;;;;;;10537338;28;20858;-36
2023/07/17 01:53:22;;;;;;;14.80;4.00;;;19.30;93.40;;;;;;10510376;28;20052;-35
2023/07/17 01:58:24;;;;;;;18.98;4.43;;;19.00;94.90;;;;;;10531753;28;20041;-36
2023/07/17 02:03:26;;;;;;;19.10;4.47;;;19.10;94.10;;;;;;10519651;28;20139;-37
2023/07/17 02:08:29;;;;;;;;;;;18.10;95.60;;;;;;10534595;28;20087;-35
2023/07/17 02:13:31;;;;;;;6.28;2.97;;;18.70;94.50;;;;;;10537563;28;20364;-35
2023/07/17 02:18:33;;;;;;;10.32;3.70;;;19.00;93.00;;;;;;10515943;28;20139;-33
2023/07/17 02:23:36;;;;;;;14.48;4.47;;;18.70;94.30;;;;;;10524610;28;20051;-34
2023/07/17 02:28:38;;;;;;;12.20;3.60;;;19.50;92.00;;;;;;10531615;28;20071;-35
2023/07/17 02:33:40;;;;;;;12.65;3.67;;;19.50;90.10;;;;;;10533305;28;20615;-35
2023/07/17 02:38:43;;;;;;;15.68;5.00;;;18.60;95.40;;;;;;10540252;28;20112;-35
2023/07/17 02:43:45;;;;;;;10.50;3.55;;;18.40;95.60;;;;;;10539105;28;20150;-36
2023/07/17 02:48:47;;;;;;;16.80;4.85;;;20.00;86.90;;;;;;10538907;28;20071;-35
2023/07/17 02:53:50;;;;;;;12.45;4.88;;;19.10;93.40;;;;;;10539763;28;20101;-35
2023/07/17 03:15:31;;;;;;;18.10;6.20;;;18.40;95.50;;;;;;10568500;27;20123;-35
2023/07/17 03:20:35;;;;;;;17.48;5.05;;;17.90;97.60;;;;;;10547415;28;20508;-35
2023/07/17 03:25:37;;;;;;;11.20;4.50;;;18.70;95.20;;;;;;10531310;28;20127;-34
2023/07/17 03:30:41;;;;;;;21.27;5.53;;;19.60;90.70;;;;;;10524119;28;20150;-34
2023/07/17 03:35:43;;;;;;;17.80;5.88;;;18.40;96.90;;;;;;10530790;28;20084;-35
2023/07/17 03:40:44;;;;;;;11.63;4.20;;;18.10;98.10;;;;;;10527563;28;20472;-35
2023/07/17 03:45:51;;;;;;;16.08;4.45;;;19.00;96.90;;;;;;10508727;28;20513;-35
2023/07/17 03:50:52;;;;;;;8.13;4.07;;;19.20;95.50;;;;;;10523578;28;20042;-35
2023/07/17 03:55:54;;;;;;;9.05;3.85;;;18.90;95.90;;;;;;10515805;28;20046;-34
2023/07/17 04:00:57;;;;;;;8.57;3.10;;;19.50;91.70;;;;;;10530818;28;20058;-34
2023/07/17 04:05:59;;;;;;;10.07;3.80;;;19.90;91.60;;;;;;10530308;28;20515;-34
2023/07/17 04:11:02;;;;;;;10.32;4.55;;;18.80;96.20;;;;;;10515623;28;20098;-35
2023/07/17 04:16:05;;;;;;;11.50;4.10;;;19.70;92.80;;;;;;10523120;28;20040;-35
2023/07/17 04:21:07;;;;;;;8.90;3.85;;;19.50;91.00;;;;;;10522320;28;20126;-43
2023/07/17 04:26:09;;;;;;;13.55;4.72;;;19.00;96.40;;;;;;10496855;28;20128;-36
2023/07/17 04:31:12;;;;;;;5.78;3.15;;;19.70;91.70;;;;;;10493048;28;20148;-35
2023/07/17 04:36:14;;;;;;;11.98;4.13;;;19.40;93.10;;;;;;10501344;28;20612;-35
2023/07/17 04:41:17;;;;;;;12.98;5.07;;;19.90;90.10;;;;;;10500621;28;20052;-35
2023/07/17 04:46:21;;;;;;;12.75;4.22;;;19.40;94.30;;;;;;10499424;28;20040;-36
2023/07/17 04:51:23;;;;;;;15.35;3.65;;;19.60;91.50;;;;;;10492650;28;20072;-35
2023/07/17 04:56:25;;;;;;;14.95;3.88;;;19.10;93.80;;;;;;10505184;28;20049;-33
2023/07/17 05:01:28;;;;;;;12.85;3.97;;;18.90;94.40;;;;;;10497772;28;20135;-34
2023/07/17 05:06:30;;;;;;;13.85;3.40;;;19.80;91.90;;;;;;10497339;28;20068;-33
2023/07/17 05:11:32;;;;;;;10.05;3.45;;;20.00;90.60;;;;;;10498235;28;20052;-34
2023/07/17 05:16:35;;;;;;;9.90;3.60;;;20.70;85.90;;;;;;10482971;28;20052;-35
2023/07/17 05:21:37;;;;;;;8.15;3.08;;;20.30;85.90;;;;;;10490949;28;20084;-36
2023/07/17 05:26:39;;;;;;;11.27;3.42;;;20.60;86.80;;;;;;10487132;28;20086;-36
2023/07/17 05:31:42;;;;;;;12.68;3.10;;;18.90;94.10;;;;;;10484850;28;20052;-34
2023/07/17 05:36:44;;;;;;;11.93;3.33;;;20.00;90.20;;;;;;10489186;28;20152;-36
2023/07/17 05:41:45;;;;;;;4.88;2.83;;;18.80;94.60;;;;;;10491324;28;20625;-36
2023/07/17 05:46:48;;;;;;;11.52;3.45;;;21.50;77.40;;;;;;10493342;28;20049;-36
2023/07/17 05:51:50;;;;;;;10.65;2.75;;;21.90;72.30;;;;;;10495343;28;20135;-36
2023/07/17 05:56:52;;;;;;;7.72;3.17;;;20.40;82.80;;;;;;10480959;28;20638;-35
2023/07/17 06:01:55;;;;;;;9.25;2.92;;;20.20;85.60;;;;;;10492280;28;20040;-35
2023/07/17 06:06:57;;;;;;;10.70;3.20;;;20.30;84.10;;;;;;10487032;28;20076;-35
2023/07/17 06:11:59;;;;;;;12.15;2.58;;;19.20;91.70;;;;;;10491173;28;20532;-35
2023/07/17 06:17:02;;;;;;;10.73;2.53;;;20.90;80.50;;;;;;10500070;28;20075;-34
2023/07/17 06:22:05;;;;;;;10.25;2.50;;;19.60;89.30;;;;;;10473443;28;20047;-36
2023/07/17 06:27:07;;;;;;;10.05;2.88;;;20.30;83.00;;;;;;10497849;28;20469;-36
2023/07/17 06:32:10;;;;;;;6.82;3.13;;;19.90;86.60;;;;;;10485627;28;20123;-36
2023/07/17 06:37:12;;;;;;;8.32;3.13;;;19.60;87.30;;;;;;10491209;28;20417;-35
2023/07/17 06:42:14;;;;;;;14.18;3.40;;;19.70;86.80;;;;;;10488685;28;20056;-34
2023/07/17 06:47:17;;;;;;;14.70;3.80;;;19.80;84.10;;;;;;10497179;28;20102;-36
2023/07/17 06:52:19;;;;;;;13.10;2.50;;;20.20;82.90;;;;;;10488472;28;20148;-35
2023/07/17 06:57:22;;;;;;;8.07;2.60;;;20.30;81.80;;;;;;10491781;28;20071;-36
2023/07/17 07:02:25;;;;;;;6.05;2.58;;;20.00;85.20;;;;;;10484192;28;20044;-36
2023/07/17 07:07:27;;;;;;;2.97;1.63;;;19.90;83.00;;;;;;10489263;28;20136;-36
2023/07/17 07:12:29;;;;;;;13.85;3.20;;;19.80;86.00;;;;;;10500408;28;20159;-36
2023/07/17 07:17:33;;;;;;;5.72;1.85;;;20.00;83.30;;;;;;10492159;28;20485;-36
2023/07/17 07:22:34;;;;;;;9.13;2.55;;;20.00;82.50;;;;;;10483563;28;20064;-36
2023/07/17 07:27:36;;;;;;;7.75;2.00;;;19.70;84.50;;;;;;10487548;28;20048;-36
2023/07/17 07:32:40;;;;;;;5.93;1.63;;;19.80;82.10;;;;;;10498720;28;20048;-35
2023/07/17 07:37:42;;;;;;;6.60;2.20;;;21.00;75.60;;;;;;10489992;28;20122;-46
2023/07/17 07:42:45;;;;;;;6.05;1.80;;;20.70;77.70;;;;;;10509233;28;20139;-36
2023/07/17 07:47:48;;;;;;;8.15;2.00;;;20.30;79.90;;;;;;10487506;28;20139;-36
2023/07/17 07:52:50;;;;;;;6.43;2.00;;;20.20;80.80;;;;;;10508419;28;20086;-36
2023/07/17 07:57:52;;;;;;;7.10;2.35;;;20.60;80.20;;;;;;10492426;28;20071;-36
2023/07/17 08:02:55;;;;;;;10.32;3.47;;;20.60;79.30;;;;;;10503842;28;20099;-35
2023/07/17 08:07:57;;;;;;;10.27;2.40;;;20.10;83.30;;;;;;10518341;28;20041;-35
2023/07/17 08:12:59;;;;;;;10.50;1.85;;;20.20;83.50;;;;;;10499985;28;20133;-34
2023/07/17 08:18:03;;;;;;;10.27;2.40;;;19.70;84.30;;;;;;10512457;28;20111;-36
2023/07/17 08:23:04;;;;;;;7.68;1.95;;;20.70;79.40;;;;;;10496930;28;20408;-36
2023/07/17 08:28:06;;;;;;;12.77;2.10;;;20.40;81.40;;;;;;10502287;28;20123;-36
2023/07/17 08:33:11;;;;;;;5.85;1.95;;;20.50;80.00;;;;;;10499976;28;20051;-36
2023/07/17 08:38:13;;;;;;;8.45;1.70;;;20.30;83.90;;;;;;10482745;28;20234;-36
2023/07/17 08:43:15;;;;;;;6.28;1.90;;;20.60;82.50;;;;;;10496453;28;20152;-36
2023/07/17 08:48:19;;;;;;;9.05;2.22;;;20.20;83.80;;;;;;10500771;28;20068;-36
2023/07/17 08:53:24;;;;;;;5.90;2.28;;;20.70;82.20;;;;;;10498915;28;20060;-30
2023/07/17 08:58:28;;;;;;;8.45;2.03;;;21.00;76.50;;;;;;10497108;28;20052;-36
2023/07/17 09:03:32;;;;;;;12.63;1.75;;;20.90;81.90;;;;;;10497233;28;20083;-36
2023/07/17 09:08:34;;;;;;;5.97;1.55;;;20.90;80.70;;;;;;10489265;28;20527;-36
2023/07/17 09:13:39;;;;;;;6.03;1.92;;;20.60;80.80;;;;;;10493317;28;20061;-35
2023/07/17 09:18:42;;;;;;;3.65;1.33;;;20.30;81.40;;;;;;10486654;28;20064;-36
2023/07/17 09:23:46;;;;;;;9.00;2.13;;;21.00;73.80;;;;;;10492876;28;20505;-36
2023/07/17 09:28:49;;;;;;;12.05;2.40;;;20.70;79.80;;;;;;10476737;28;20040;-36
2023/07/17 09:33:52;;;;;;;10.18;2.58;;;20.20;89.20;;;;;;10489975;28;20074;-35
2023/07/17 09:38:56;;;;;;;8.63;2.72;;;21.10;78.50;;;;;;10499106;28;20102;-35
2023/07/17 09:44:01;;;;;;;10.40;2.67;;;20.80;81.30;;;;;;10489245;28;20149;-35
2023/07/17 09:49:06;;;;;;;11.70;2.55;;;20.70;85.50;;;;;;10492156;28;20425;-35
2023/07/17 09:54:08;;;;;;;6.60;2.65;;;21.50;75.50;;;;;;10479448;28;20146;-34
2023/07/17 09:59:13;;;;;;;;;;;21.20;79.80;;;;;;10494040;28;20076;-35
2023/07/17 10:04:25;;;;;;;14.10;3.45;;;21.40;76.70;;;;;;10493986;28;19921;-34
2023/07/17 10:09:30;;;;;;;5.22;1.90;;;20.50;89.70;;;;;;10495695;28;20045;-33
2023/07/17 10:14:32;;;;;;;11.30;3.70;;;21.70;75.10;;;;;;10491137;28;20122;-34
2023/07/17 10:19:45;;;;;;;10.90;3.53;;;20.70;87.30;;;;;;10494081;28;20079;-34
2023/07/17 10:24:48;;;;;;;11.93;3.17;;;21.40;88.90;;;;;;10486813;28;20052;-36
2023/07/17 10:29:52;;;;;;;8.65;3.22;;;20.90;83.60;;;;;;10481629;28;20147;-36
2023/07/17 10:34:55;;;;;;;6.50;2.28;;;20.90;87.20;;;;;;10484735;28;20048;-32
2023/07/17 10:40:05;;;;;;;13.15;3.95;;;21.90;75.30;;;;;;10491983;28;20052;-35
2023/07/17 10:45:10;;;;;;;13.45;2.90;;;20.70;83.30;;;;;;10495867;28;20123;-35
2023/07/17 10:50:13;;;;;;;8.73;3.28;;;21.00;80.40;;;;;;10479976;28;20040;-35
2023/07/17 10:55:15;;;;;;;10.43;3.15;;;21.00;79.20;;;;;;10475936;28;20829;-35
2023/07/17 11:00:18;;;;;;;11.63;3.33;;;21.20;77.60;;;;;;10489014;28;20118;-35
2023/07/17 11:05:21;;;;;;;10.68;3.10;;;20.80;78.60;;;;;;10481663;28;20052;-34
2023/07/17 11:10:23;;;;;;;13.48;3.33;;;21.30;76.40;;;;;;10489981;28;20409;-35
2023/07/17 11:15:25;;;;;;;10.43;3.03;;;21.60;76.70;;;;;;10476584;28;20052;-35
2023/07/17 11:20:30;;;;;;;11.68;3.35;;;21.40;77.00;;;;;;10478730;28;20161;-35
2023/07/17 11:25:34;;;;;;;8.10;3.30;;;21.80;76.10;;;;;;10489906;28;20078;-35
2023/07/17 11:30:36;;;;;;;9.63;3.53;;;22.20;74.80;;;;;;10489811;28;20404;-35
2023/07/17 11:35:41;;;;;;;9.50;3.40;;;22.30;72.90;;;;;;10505629;28;20100;-35
2023/07/17 11:40:53;;;;;;;8.55;3.78;;;22.10;73.70;;;;;;10517841;28;20054;-35
2023/07/17 11:45:56;;;;;;;;;;;21.40;80.60;;;;;;10487837;28;20131;-35
2023/07/17 11:51:03;;;;;;;10.43;3.22;;;22.20;72.20;;;;;;10495638;28;19927;-35
2023/07/17 11:56:05;;;;;;;4.13;2.42;;;21.50;73.50;;;;;;10500023;28;20132;-35
2023/07/17 12:01:07;;;;;;;6.03;2.45;;;22.20;68.80;;;;;;10498365;28;20142;-36
2023/07/17 12:06:10;;;;;;;;;;;22.30;63.60;;;;;;10502938;28;20051;-35
2023/07/17 12:11:12;;;;;;;7.45;2.70;;;23.00;65.50;;;;;;10511652;28;19920;-35
2023/07/17 12:16:14;;;;;;;4.28;1.85;;;23.10;64.60;;;;;;10504846;28;20588;-35
2023/07/17 12:21:17;;;;;;;3.30;1.98;;;22.40;64.50;;;;;;10495696;28;20041;-35
2023/07/17 12:26:19;;;;;;;4.90;2.10;;;22.70;64.80;;;;;;10496899;28;20084;-33
2023/07/17 12:31:21;;;;;;;7.60;2.10;;;22.10;70.40;;;;;;10504809;28;20052;-34
2023/07/17 12:36:24;;;;;;;7.18;2.45;;;22.70;66.70;;;;;;10515679;28;20147;-35
2023/07/17 12:41:26;;;;;;;7.57;2.40;;;22.10;70.90;;;;;;10502374;28;20151;-35
2023/07/17 12:46:28;;;;;;;8.40;2.92;;;22.70;67.80;;;;;;10501835;28;20127;-35
2023/07/17 12:51:31;;;;;;;11.25;3.40;;;22.20;70.90;;;;;;10497703;28;20036;-35
2023/07/17 12:56:33;;;;;;;14.10;3.45;;;22.60;69.60;;;;;;10493373;28;20075;-34
2023/07/17 13:01:35;;;;;;;10.88;2.80;;;22.20;73.80;;;;;;10483181;28;20047;-35
2023/07/17 13:06:38;;;;;;;6.93;3.13;;;22.30;78.50;;;;;;10487676;28;20065;-36
2023/07/17 13:11:40;;;;;;;7.47;3.05;;;22.60;73.00;;;;;;10496072;28;20561;-36
2023/07/17 13:16:42;;;;;;;14.93;3.63;;;22.60;69.70;;;;;;10499915;28;20086;-35
2023/07/17 13:21:46;;;;;;;14.18;3.78;;;22.20;74.60;;;;;;10491605;28;20513;-35
2023/07/17 13:26:48;;;;;;;8.05;2.97;;;21.70;77.40;;;;;;10491567;28;20477;-35
2023/07/17 13:31:50;;;;;;;;;;;22.30;77.20;;;;;;10502058;28;20051;-35
2023/07/17 13:36:54;;;;;;;11.13;3.40;;;22.10;77.70;;;;;;10492066;28;20016;-35
2023/07/17 13:41:58;;;;;;;7.35;3.30;;;21.20;86.70;;;;;;10502113;28;20139;-34
2023/07/17 13:47:00;;;;;;;8.63;2.47;;;21.60;79.90;;;;;;10494302;28;20047;-34
2023/07/17 13:52:04;;;;;;;7.60;2.83;;;22.00;72.60;;;;;;10498776;28;20139;-35
2023/07/17 13:57:07;;;;;;;6.90;2.45;;;22.20;73.80;;;;;;10492595;28;20155;-34
2023/07/17 14:02:09;;;;;;;5.65;2.30;;;22.90;72.00;;;;;;10500783;28;20075;-35
2023/07/17 14:07:12;;;;;;;4.70;1.73;;;22.50;71.20;;;;;;10503647;28;20055;-36
2023/07/17 14:12:14;;;;;;;5.45;2.28;;;22.50;67.20;;;;;;10481129;28;20120;-35
2023/07/17 14:17:16;;;;;;;7.82;2.65;;;22.60;68.40;;;;;;10496530;28;20114;-35
2023/07/17 14:22:19;;;;;;;12.15;2.60;;;22.80;72.30;;;;;;10497569;28;20040;-36
2023/07/17 14:27:21;;;;;;;9.43;2.65;;;22.70;74.10;;;;;;10495345;28;20051;-35
2023/07/17 14:32:23;;;;;;;5.50;2.10;;;22.20;70.10;;;;;;10492808;28;20068;-35
2023/07/17 14:37:26;;;;;;;6.57;2.33;;;22.50;70.10;;;;;;10489861;28;20041;-34
2023/07/17 14:42:28;;;;;;;6.70;2.15;;;22.60;70.90;;;;;;10494617;28;20151;-35
2023/07/17 14:47:30;;;;;;;6.00;1.70;;;22.70;70.80;;;;;;10488600;28;20068;-34
2023/07/17 14:52:33;;;;;;;10.18;2.75;;;23.50;66.40;;;;;;10493051;28;20461;-31
2023/07/17 14:57:35;;;;;;;6.70;1.70;;;23.90;62.40;;;;;;10492163;28;20072;-38
2023/07/17 15:02:37;;;;;;;10.65;1.52;;;24.50;62.10;;;;;;10492492;28;20058;-35
2023/07/17 15:07:40;;;;;;;4.88;1.80;;;24.70;58.20;;;;;;10486048;28;20516;-35
2023/07/17 15:12:42;;;;;;;4.55;1.58;;;25.10;62.40;;;;;;10482008;28;20647;-41
2023/07/17 15:17:44;;;;;;;7.05;1.58;;;25.20;59.50;;;;;;10499269;28;20084;-36
2023/07/17 15:22:47;;;;;;;4.35;1.70;;;25.30;60.20;;;;;;10492783;28;20108;-35
2023/07/17 15:27:49;;;;;;;4.75;1.45;;;25.20;61.00;;;;;;10495916;28;20072;-36
2023/07/17 15:32:51;;;;;;;9.35;1.73;;;25.60;57.70;;;;;;10491041;28;20084;-36
2023/07/17 15:37:54;;;;;;;2.60;0.90;;;25.10;57.70;;;;;;10489582;28;20147;-36
2023/07/17 15:42:56;;;;;;;3.35;1.08;;;25.70;59.00;;;;;;10480146;28;20124;-34
2023/07/17 15:47:58;;;;;;;3.97;1.00;;;25.50;55.50;;;;;;10488874;28;20071;-36
2023/07/17 15:53:01;;;;;;;5.28;1.10;;;25.30;55.20;;;;;;10481541;28;20040;-35
2023/07/17 15:58:03;;;;;;;9.25;1.08;;;25.70;55.20;;;;;;10491188;28;20472;-36
2023/07/17 16:03:05;;;;;;;2.20;0.90;;;25.70;56.90;;;;;;10497074;28;20074;-36
2023/07/17 16:08:08;;;;;;;5.03;1.02;;;26.30;54.70;;;;;;10515762;28;20072;-33
2023/07/17 16:13:10;;;;;;;3.08;0.93;;;26.00;55.30;;;;;;10494917;28;20127;-36
2023/07/17 16:18:12;;;;;;;6.38;1.42;;;26.70;58.30;;;;;;10488062;28;20144;-37
2023/07/17 16:23:15;;;;;;;3.45;0.90;;;25.90;54.70;;;;;;10496764;28;20455;-35
2023/07/17 16:28:17;;;;;;;2.10;0.75;;;26.80;60.30;;;;;;10508230;28;20052;-36
2023/07/17 16:33:19;;;;;;;4.85;1.05;;;26.60;56.60;;;;;;10494660;28;20068;-35
2023/07/17 16:38:22;;;;;;;9.95;1.33;;;27.10;58.10;;;;;;10495419;28;20142;-35
2023/07/17 16:43:24;;;;;;;6.93;1.23;;;27.10;54.60;;;;;;10501868;28;20478;-37
2023/07/17 16:48:26;;;;;;;8.40;2.35;;;27.30;57.20;;;;;;10522983;28;20050;-35
2023/07/17 16:53:29;;;;;;;4.60;0.90;;;26.20;57.90;;;;;;10503384;28;20142;-34
2023/07/17 16:58:31;;;;;;;4.45;0.88;;;25.90;59.00;;;;;;10486915;28;20545;-34
2023/07/17 17:03:33;;;;;;;5.32;0.88;;;26.10;57.90;;;;;;10495203;28;20501;-36
2023/07/17 17:08:41;;;;;;;3.55;0.70;;;26.30;58.90;;;;;;10498579;28;20126;-36
2023/07/17 17:13:43;;;;;;;8.60;1.15;;;26.90;59.20;;;;;;10496219;28;20078;-36
2023/07/17 17:18:45;;;;;;;6.70;1.48;;;26.00;58.80;;;;;;10495089;28;20123;-36
2023/07/17 17:23:48;;;;;;;6.95;1.25;;;27.10;59.20;;;;;;10500723;28;20139;-36
2023/07/17 17:28:50;;;;;;;11.63;1.85;;;26.70;60.60;;;;;;10503786;28;20123;-36
2023/07/17 17:33:52;;;;;;;7.90;1.52;;;26.70;60.50;;;;;;10498968;28;20501;-36
2023/07/17 17:38:55;;;;;;;5.18;1.27;;;26.90;63.30;;;;;;10498801;28;20127;-36
2023/07/17 17:43:57;;;;;;;6.47;1.00;;;26.70;59.90;;;;;;10494876;28;20129;-50
2023/07/17 17:48:59;;;;;;;24.05;7.88;;;26.80;60.70;;;;;;10495371;28;20136;-36
2023/07/17 17:54:03;;;;;;;8.48;1.00;;;26.20;61.70;;;;;;10493689;28;20139;-35
2023/07/17 17:59:04;;;;;;;5.00;0.95;;;26.70;58.30;;;;;;10494470;28;20523;-35
2023/07/17 18:04:06;;;;;;;7.97;1.00;;;27.20;64.90;;;;;;10493910;28;20135;-35
2023/07/17 18:09:09;;;;;;;8.38;1.33;;;25.90;67.50;;;;;;10497226;28;20114;-35
2023/07/17 18:14:11;;;;;;;10.75;1.23;;;26.90;63.60;;;;;;10493853;28;20396;-36
2023/07/17 18:19:13;;;;;;;12.23;1.98;;;27.00;58.60;;;;;;10504655;28;20072;-36
2023/07/17 18:24:17;;;;;;;8.77;1.30;;;26.50;61.20;;;;;;10485320;28;20098;-36
2023/07/17 18:29:19;;;;;;;11.85;1.58;;;26.70;59.70;;;;;;10490767;28;20439;-35
2023/07/17 18:34:21;;;;;;;6.97;2.10;;;26.60;60.30;;;;;;10490131;28;20177;-35
2023/07/17 18:39:25;;;;;;;6.82;1.23;;;26.20;67.10;;;;;;10490483;28;20059;-36
2023/07/17 18:44:28;;;;;;;7.82;1.48;;;27.20;65.00;;;;;;10502974;28;20056;-35
2023/07/17 18:49:31;;;;;;;8.50;1.35;;;27.00;58.90;;;;;;10490324;28;20055;-35
2023/07/17 18:54:35;;;;;;;8.73;1.15;;;27.30;61.90;;;;;;10502017;28;20097;-35
2023/07/17 18:59:38;;;;;;;11.82;1.88;;;26.90;67.20;;;;;;10489129;28;20052;-34
2023/07/17 19:04:40;;;;;;;9.68;1.15;;;25.60;67.40;;;;;;10500240;28;20048;-33
2023/07/17 19:09:43;;;;;;;3.88;1.00;;;25.90;60.60;;;;;;10489449;28;20041;-37
2023/07/17 19:14:45;;;;;;;8.02;1.15;;;24.10;68.00;;;;;;10483839;28;20185;-35
2023/07/17 19:19:47;;;;;;;5.20;1.17;;;25.30;69.90;;;;;;10469108;28;20074;-35
2023/07/17 19:24:51;;;;;;;13.40;1.90;;;25.60;72.00;;;;;;10493162;28;20040;-35
2023/07/17 19:29:53;;;;;;;5.15;1.10;;;24.60;77.60;;;;;;10497078;28;20044;-36
2023/07/17 19:34:54;;;;;;;;;;;24.50;79.80;;;;;;10489750;28;20048;-36
2023/07/17 19:39:58;;;;;;;5.68;1.25;;;27.20;65.10;;;;;;10500656;28;19974;-35
2023/07/17 19:44:59;;;;;;;3.65;0.80;;;27.10;63.80;;;;;;10500787;28;20066;-33
2023/07/17 19:50:02;;;;;;;5.28;0.82;;;27.50;61.30;;;;;;10494988;28;20083;-37
2023/07/17 19:55:06;;;;;;;3.88;0.88;;;28.20;59.40;;;;;;10493369;28;20059;-35
2023/07/17 20:00:10;;;;;;;3.10;0.85;;;28.20;58.60;;;;;;10506020;28;20047;-35
2023/07/17 20:05:12;;;;;;;5.70;1.20;;;28.20;58.00;;;;;;10497008;28;20044;-36
2023/07/17 20:10:15;;;;;;;5.63;1.20;;;27.60;58.20;;;;;;10505480;28;20054;-36
2023/07/17 20:15:19;;;;;;;12.18;1.65;;;25.50;64.00;;;;;;10497245;28;20060;-36
2023/07/17 20:20:22;;;;;;;11.13;2.22;;;24.10;69.40;;;;;;10493241;28;20056;-36
2023/07/17 20:25:26;;;;;;;9.40;1.88;;;25.60;65.90;;;;;;10498709;28;20048;-37
2023/07/17 20:30:28;;;;;;;11.23;1.75;;;24.80;67.80;;;;;;10503291;28;20037;-35
2023/07/17 20:35:29;;;;;;;9.00;1.60;;;25.80;65.80;;;;;;10491683;28;20486;-36
2023/07/17 20:40:33;;;;;;;2.95;1.27;;;25.10;67.90;;;;;;10503728;28;20482;-36
2023/07/17 20:45:48;;;;;;;13.02;1.85;;;24.30;72.90;;;;;;10504303;28;20127;-36
2023/07/17 20:51:03;;;;;;;6.53;1.40;;;23.80;77.50;;;;;;10502712;28;20060;-35
2023/07/17 20:56:07;;;;;;;7.45;1.42;;;24.20;76.30;;;;;;10488117;28;20123;-34
2023/07/17 21:01:15;;;;;;;18.50;1.85;;;24.70;70.10;;;;;;10504167;28;20115;-36
2023/07/17 21:06:17;;;;;;;4.85;1.83;;;25.30;65.50;;;;;;10511441;28;20048;-36
2023/07/17 21:11:20;;;;;;;12.07;2.00;;;26.00;64.80;;;;;;10502342;28;20072;-37
2023/07/17 21:16:22;;;;;;;4.07;1.63;;;24.20;71.50;;;;;;10496648;28;20055;-36
2023/07/17 21:21:24;;;;;;;;;;;25.00;69.00;;;;;;10494606;28;20133;-30
2023/07/17 21:26:27;;;;;;;13.15;1.95;;;23.10;80.50;;;;;;10504704;28;20262;-34
2023/07/17 21:31:30;;;;;;;8.73;2.42;;;21.70;91.20;;;;;;10493028;28;20051;-35
2023/07/17 21:36:33;;;;;;;13.02;2.20;;;23.50;82.00;;;;;;10495242;28;20045;-34
2023/07/17 21:41:36;;;;;;;12.18;2.17;;;22.70;86.30;;;;;;10480368;28;20043;-35
2023/07/17 21:46:38;;;;;;;7.85;1.83;;;22.70;87.00;;;;;;10486776;28;20045;-35
2023/07/17 21:51:40;;;;;;;4.68;1.73;;;23.10;82.10;;;;;;10491901;28;20501;-36
2023/07/17 21:56:43;;;;;;;8.88;1.95;;;22.00;91.10;;;;;;10492180;28;20051;-36
2023/07/17 22:01:45;;;;;;;7.15;1.85;;;22.60;86.80;;;;;;10481196;28;20088;-34
2023/07/17 22:06:47;;;;;;;7.35;1.55;;;23.40;79.70;;;;;;10493189;28;20123;-37
2023/07/17 22:11:50;;;;;;;;;;;22.00;89.90;;;;;;10493395;28;20465;-35
2023/07/17 22:16:52;;;;;;;4.55;1.95;;;22.20;88.40;;;;;;10493636;28;19920;-32
2023/07/17 22:21:54;;;;;;;;;;;23.60;77.60;;;;;;10479500;28;20053;-34
2023/07/17 22:26:57;;;;;;;14.10;1.83;;;22.50;86.00;;;;;;10486495;28;19920;-37
2023/07/17 22:31:59;;;;;;;4.30;1.55;;;22.90;79.70;;;;;;10488492;28;20052;-35
2023/07/17 22:37:01;;;;;;;;;;;24.20;72.50;;;;;;10507661;28;20677;-35
2023/07/17 22:42:04;;;;;;;2.85;1.25;;;24.80;68.20;;;;;;10500730;28;20336;-36
2023/07/17 22:47:07;;;;;;;4.00;1.38;;;25.90;62.60;;;;;;10492564;28;20080;-37
2023/07/17 22:52:09;;;;;;;5.18;1.30;;;25.30;64.30;;;;;;10515653;28;20466;-34
2023/07/17 22:57:12;;;;;;;;;;;24.70;65.80;;;;;;10495355;28;20663;-36
2023/07/17 23:02:14;;;;;;;3.58;1.40;;;23.90;72.50;;;;;;10494778;28;20362;-34
2023/07/17 23:07:16;;;;;;;2.65;1.20;;;24.90;66.70;;;;;;10491078;28;20488;-36
2023/07/17 23:12:20;;;;;;;2.30;0.95;;;26.00;61.90;;;;;;10497387;28;20060;-35
2023/07/17 23:17:22;;;;;;;5.85;1.27;;;25.50;62.50;;;;;;10505525;28;20048;-34
2023/07/17 23:22:24;;;;;;;6.15;1.50;;;25.30;63.80;;;;;;10500892;28;20492;-32
2023/07/17 23:27:27;;;;;;;1.75;0.93;;;25.20;64.00;;;;;;10483361;28;20543;-35
2023/07/17 23:32:29;;;;;;;4.55;0.98;;;25.40;63.20;;;;;;10495532;28;20098;-35
2023/07/17 23:37:32;;;;;;;4.47;0.90;;;25.90;61.40;;;;;;10500574;28;20707;-34
2023/07/17 23:42:39;;;;;;;2.47;0.80;;;26.20;59.90;;;;;;10500538;28;20140;-42
2023/07/17 23:47:41;;;;;;;6.70;1.20;;;26.40;59.40;;;;;;10504915;28;20051;-36
2023/07/17 23:52:45;;;;;;;1.50;0.70;;;25.30;62.80;;;;;;10497439;28;20057;-36
2023/07/17 23:57:48;;;;;;;4.32;1.27;;;25.90;60.70;;;;;;10504146;28;20092;-36
